sensor_id;sensor_type;location;lat;lon;timestamp;P1;durP1;ratioP1;P2;durP2;ratioP2
71655;SDS011;59497;48.798;8.816;2023-03-01T00:01:05;22.10;;;8.77;;
71655;SDS011;59497;48.798;8.816;2023-03-01T00:03:30;22.65;;;9.20;;
71655;SDS011;59497;48.798;8.816;2023-03-01T00:05:56;20.13;;;8.70;;
71655;SDS011;59497;48.798;8.816;2023-03-01T00:08:21;21.83;;;8.60;;
71655;SDS011;59497;48.798;8.816;2023-03-01T00:10:47;19.23;;;8.50;;
71655;SDS011;59497;48.798;8.816;2023-03-01T00:13:12;20.63;;;8.53;;
71655;SDS011;59497;48.798;8.816;2023-03-01T00:15:38;18.27;;;8.97;;
71655;SDS011;59497;48.798;8.816;2023-03-01T00:18:03;20.20;;;8.18;;
71655;SDS011;59497;48.798;8.816;2023-03-01T00:20:28;19.73;;;8.07;;
71655;SDS011;59497;48.798;8.816;2023-03-01T00:22:53;19.55;;;8.18;;
71655;SDS011;59497;48.798;8.816;2023-03-01T00:25:18;18.77;;;8.00;;
71655;SDS011;59497;48.798;8.816;2023-03-01T00:27:43;18.80;;;8.53;;
71655;SDS011;59497;48.798;8.816;2023-03-01T00:30:09;17.60;;;8.35;;
71655;SDS011;59497;48.798;8.816;2023-03-01T00:32:34;19.70;;;7.97;;
71655;SDS011;59497;48.798;8.816;2023-03-01T00:34:59;18.57;;;8.60;;
71655;SDS011;59497;48.798;8.816;2023-03-01T00:37:25;19.17;;;8.60;;
71655;SDS011;59497;48.798;8.816;2023-03-01T00:39:50;26.47;;;12.97;;
71655;SDS011;59497;48.798;8.816;2023-03-01T00:42:15;33.27;;;12.20;;
71655;SDS011;59497;48.798;8.816;2023-03-01T00:44:40;22.63;;;9.20;;
71655;SDS011;59497;48.798;8.816;2023-03-01T00:47:05;23.80;;;9.30;;
71655;SDS011;59497;48.798;8.816;2023-03-01T00:49:30;21.40;;;8.70;;
71655;SDS011;59497;48.798;8.816;2023-03-01T00:51:56;49.17;;;18.07;;
71655;SDS011;59497;48.798;8.816;2023-03-01T00:54:21;40.97;;;15.97;;
71655;SDS011;59497;48.798;8.816;2023-03-01T00:56:46;27.00;;;11.13;;
71655;SDS011;59497;48.798;8.816;2023-03-01T00:59:11;24.27;;;10.93;;
71655;SDS011;59497;48.798;8.816;2023-03-01T01:01:36;28.07;;;11.20;;
71655;SDS011;59497;48.798;8.816;2023-03-01T01:04:03;20.70;;;8.17;;
71655;SDS011;59497;48.798;8.816;2023-03-01T01:06:30;19.47;;;8.10;;
71655;SDS011;59497;48.798;8.816;2023-03-01T01:08:56;22.30;;;10.23;;
71655;SDS011;59497;48.798;8.816;2023-03-01T01:11:22;21.52;;;9.55;;
71655;SDS011;59497;48.798;8.816;2023-03-01T01:13:48;19.83;;;8.27;;
71655;SDS011;59497;48.798;8.816;2023-03-01T01:16:14;21.60;;;8.15;;
71655;SDS011;59497;48.798;8.816;2023-03-01T01:18:39;17.60;;;7.00;;
71655;SDS011;59497;48.798;8.816;2023-03-01T01:21:06;22.48;;;9.30;;
71655;SDS011;59497;48.798;8.816;2023-03-01T01:23:32;25.48;;;9.85;;
71655;SDS011;59497;48.798;8.816;2023-03-01T01:25:57;18.97;;;9.73;;
71655;SDS011;59497;48.798;8.816;2023-03-01T01:28:22;21.17;;;8.90;;
71655;SDS011;59497;48.798;8.816;2023-03-01T01:30:47;22.90;;;8.98;;
71655;SDS011;59497;48.798;8.816;2023-03-01T01:33:12;23.07;;;9.83;;
71655;SDS011;59497;48.798;8.816;2023-03-01T01:35:37;22.58;;;10.55;;
71655;SDS011;59497;48.798;8.816;2023-03-01T01:38:03;20.13;;;9.67;;
71655;SDS011;59497;48.798;8.816;2023-03-01T01:40:28;18.15;;;7.65;;
71655;SDS011;59497;48.798;8.816;2023-03-01T01:42:53;19.13;;;8.67;;
71655;SDS011;59497;48.798;8.816;2023-03-01T01:45:27;23.55;;;9.15;;
71655;SDS011;59497;48.798;8.816;2023-03-01T01:47:52;21.55;;;9.60;;
71655;SDS011;59497;48.798;8.816;2023-03-01T01:50:19;19.80;;;9.02;;
71655;SDS011;59497;48.798;8.816;2023-03-01T01:52:44;18.63;;;9.27;;
71655;SDS011;59497;48.798;8.816;2023-03-01T01:55:14;20.23;;;9.30;;
71655;SDS011;59497;48.798;8.816;2023-03-01T01:57:41;19.38;;;8.35;;
71655;SDS011;59497;48.798;8.816;2023-03-01T02:00:09;24.63;;;9.15;;
71655;SDS011;59497;48.798;8.816;2023-03-01T02:02:35;17.67;;;8.03;;
71655;SDS011;59497;48.798;8.816;2023-03-01T02:05:02;19.75;;;7.88;;
71655;SDS011;59497;48.798;8.816;2023-03-01T02:07:35;20.20;;;8.27;;
71655;SDS011;59497;48.798;8.816;2023-03-01T02:10:01;22.48;;;8.45;;
71655;SDS011;59497;48.798;8.816;2023-03-01T02:12:27;20.27;;;8.80;;
71655;SDS011;59497;48.798;8.816;2023-03-01T02:14:52;21.30;;;9.37;;
71655;SDS011;59497;48.798;8.816;2023-03-01T02:17:17;19.48;;;8.07;;
71655;SDS011;59497;48.798;8.816;2023-03-01T02:19:57;20.30;;;8.80;;
71655;SDS011;59497;48.798;8.816;2023-03-01T02:22:30;24.33;;;10.02;;
71655;SDS011;59497;48.798;8.816;2023-03-01T02:27:48;20.52;;;9.48;;
71655;SDS011;59497;48.798;8.816;2023-03-01T02:30:16;21.70;;;9.48;;
71655;SDS011;59497;48.798;8.816;2023-03-01T02:32:41;19.17;;;7.83;;
71655;SDS011;59497;48.798;8.816;2023-03-01T02:35:10;19.13;;;8.27;;
71655;SDS011;59497;48.798;8.816;2023-03-01T02:37:36;18.02;;;7.60;;
71655;SDS011;59497;48.798;8.816;2023-03-01T02:40:04;20.53;;;9.07;;
71655;SDS011;59497;48.798;8.816;2023-03-01T02:42:31;20.25;;;8.95;;
71655;SDS011;59497;48.798;8.816;2023-03-01T02:44:58;22.80;;;9.68;;
71655;SDS011;59497;48.798;8.816;2023-03-01T02:47:23;19.83;;;8.10;;
71655;SDS011;59497;48.798;8.816;2023-03-01T02:49:49;19.88;;;8.55;;
71655;SDS011;59497;48.798;8.816;2023-03-01T02:52:21;20.43;;;7.57;;
71655;SDS011;59497;48.798;8.816;2023-03-01T02:55:09;19.65;;;8.07;;
71655;SDS011;59497;48.798;8.816;2023-03-01T02:57:34;17.93;;;7.87;;
71655;SDS011;59497;48.798;8.816;2023-03-01T03:00:02;19.08;;;8.75;;
71655;SDS011;59497;48.798;8.816;2023-03-01T03:02:31;17.98;;;8.18;;
71655;SDS011;59497;48.798;8.816;2023-03-01T03:05:04;18.70;;;7.70;;
71655;SDS011;59497;48.798;8.816;2023-03-01T03:07:31;24.17;;;9.52;;
71655;SDS011;59497;48.798;8.816;2023-03-01T03:09:56;22.93;;;9.00;;
71655;SDS011;59497;48.798;8.816;2023-03-01T03:12:21;19.93;;;8.00;;
71655;SDS011;59497;48.798;8.816;2023-03-01T03:14:46;21.85;;;8.50;;
71655;SDS011;59497;48.798;8.816;2023-03-01T03:17:11;20.85;;;7.95;;
71655;SDS011;59497;48.798;8.816;2023-03-01T03:19:36;22.00;;;9.10;;
71655;SDS011;59497;48.798;8.816;2023-03-01T03:22:01;21.57;;;8.93;;
71655;SDS011;59497;48.798;8.816;2023-03-01T03:24:27;23.07;;;9.27;;
71655;SDS011;59497;48.798;8.816;2023-03-01T03:26:53;24.73;;;9.18;;
71655;SDS011;59497;48.798;8.816;2023-03-01T03:29:18;23.00;;;8.70;;
71655;SDS011;59497;48.798;8.816;2023-03-01T03:31:43;22.20;;;9.43;;
71655;SDS011;59497;48.798;8.816;2023-03-01T03:34:09;18.80;;;7.93;;
71655;SDS011;59497;48.798;8.816;2023-03-01T03:36:42;24.38;;;9.63;;
71655;SDS011;59497;48.798;8.816;2023-03-01T03:39:07;22.83;;;8.70;;
71655;SDS011;59497;48.798;8.816;2023-03-01T03:41:34;20.48;;;8.45;;
71655;SDS011;59497;48.798;8.816;2023-03-01T03:43:59;24.17;;;9.52;;
71655;SDS011;59497;48.798;8.816;2023-03-01T03:46:24;20.27;;;9.70;;
71655;SDS011;59497;48.798;8.816;2023-03-01T03:48:50;22.70;;;10.30;;
71655;SDS011;59497;48.798;8.816;2023-03-01T03:51:16;21.07;;;8.93;;
71655;SDS011;59497;48.798;8.816;2023-03-01T03:53:41;21.55;;;9.50;;
71655;SDS011;59497;48.798;8.816;2023-03-01T03:56:06;22.37;;;10.20;;
71655;SDS011;59497;48.798;8.816;2023-03-01T03:58:32;24.83;;;9.30;;
71655;SDS011;59497;48.798;8.816;2023-03-01T04:00:57;20.33;;;10.03;;
71655;SDS011;59497;48.798;8.816;2023-03-01T04:03:23;20.13;;;9.43;;
71655;SDS011;59497;48.798;8.816;2023-03-01T04:05:48;20.10;;;9.63;;
71655;SDS011;59497;48.798;8.816;2023-03-01T04:08:15;21.40;;;9.73;;
71655;SDS011;59497;48.798;8.816;2023-03-01T04:10:44;23.23;;;9.67;;
71655;SDS011;59497;48.798;8.816;2023-03-01T04:13:13;22.08;;;9.27;;
71655;SDS011;59497;48.798;8.816;2023-03-01T04:15:39;22.80;;;10.13;;
71655;SDS011;59497;48.798;8.816;2023-03-01T04:18:04;21.90;;;9.53;;
71655;SDS011;59497;48.798;8.816;2023-03-01T04:20:31;23.30;;;9.07;;
71655;SDS011;59497;48.798;8.816;2023-03-01T04:22:59;23.65;;;9.88;;
71655;SDS011;59497;48.798;8.816;2023-03-01T04:25:24;22.33;;;9.50;;
71655;SDS011;59497;48.798;8.816;2023-03-01T04:27:50;20.77;;;10.20;;
71655;SDS011;59497;48.798;8.816;2023-03-01T04:30:15;21.10;;;8.97;;
71655;SDS011;59497;48.798;8.816;2023-03-01T04:32:40;21.63;;;9.97;;
71655;SDS011;59497;48.798;8.816;2023-03-01T04:35:05;20.93;;;9.97;;
71655;SDS011;59497;48.798;8.816;2023-03-01T04:37:31;21.52;;;9.75;;
71655;SDS011;59497;48.798;8.816;2023-03-01T04:39:56;22.87;;;9.77;;
71655;SDS011;59497;48.798;8.816;2023-03-01T04:42:22;21.73;;;10.30;;
71655;SDS011;59497;48.798;8.816;2023-03-01T04:44:47;20.48;;;9.77;;
71655;SDS011;59497;48.798;8.816;2023-03-01T04:47:12;19.55;;;8.88;;
71655;SDS011;59497;48.798;8.816;2023-03-01T04:49:38;21.00;;;9.73;;
71655;SDS011;59497;48.798;8.816;2023-03-01T04:52:03;19.80;;;8.97;;
71655;SDS011;59497;48.798;8.816;2023-03-01T04:54:29;21.07;;;9.37;;
71655;SDS011;59497;48.798;8.816;2023-03-01T04:56:55;20.85;;;9.57;;
71655;SDS011;59497;48.798;8.816;2023-03-01T04:59:20;22.37;;;9.80;;
71655;SDS011;59497;48.798;8.816;2023-03-01T05:01:48;22.55;;;10.15;;
71655;SDS011;59497;48.798;8.816;2023-03-01T05:04:14;23.70;;;10.00;;
71655;SDS011;59497;48.798;8.816;2023-03-01T05:06:39;20.93;;;9.43;;
71655;SDS011;59497;48.798;8.816;2023-03-01T05:09:04;21.43;;;10.57;;
71655;SDS011;59497;48.798;8.816;2023-03-01T05:11:29;23.95;;;10.18;;
71655;SDS011;59497;48.798;8.816;2023-03-01T05:13:58;27.53;;;10.10;;
71655;SDS011;59497;48.798;8.816;2023-03-01T05:16:23;23.83;;;10.05;;
71655;SDS011;59497;48.798;8.816;2023-03-01T05:18:49;21.47;;;9.60;;
71655;SDS011;59497;48.798;8.816;2023-03-01T05:21:15;22.13;;;9.87;;
71655;SDS011;59497;48.798;8.816;2023-03-01T05:23:43;21.50;;;10.18;;
71655;SDS011;59497;48.798;8.816;2023-03-01T05:26:08;23.60;;;10.70;;
71655;SDS011;59497;48.798;8.816;2023-03-01T05:28:34;26.60;;;10.70;;
71655;SDS011;59497;48.798;8.816;2023-03-01T05:30:59;23.73;;;9.77;;
71655;SDS011;59497;48.798;8.816;2023-03-01T05:33:25;25.50;;;11.23;;
71655;SDS011;59497;48.798;8.816;2023-03-01T05:35:50;22.85;;;10.18;;
71655;SDS011;59497;48.798;8.816;2023-03-01T05:38:16;22.20;;;10.68;;
71655;SDS011;59497;48.798;8.816;2023-03-01T05:40:42;24.87;;;11.03;;
71655;SDS011;59497;48.798;8.816;2023-03-01T05:43:08;25.87;;;11.20;;
71655;SDS011;59497;48.798;8.816;2023-03-01T05:45:35;24.93;;;11.60;;
71655;SDS011;59497;48.798;8.816;2023-03-01T05:48:00;22.57;;;10.33;;
71655;SDS011;59497;48.798;8.816;2023-03-01T05:50:27;25.23;;;10.95;;
71655;SDS011;59497;48.798;8.816;2023-03-01T05:52:56;25.30;;;10.43;;
71655;SDS011;59497;48.798;8.816;2023-03-01T05:55:22;26.10;;;10.90;;
71655;SDS011;59497;48.798;8.816;2023-03-01T05:57:47;24.87;;;10.30;;
71655;SDS011;59497;48.798;8.816;2023-03-01T06:00:13;20.93;;;9.90;;
71655;SDS011;59497;48.798;8.816;2023-03-01T06:02:39;22.10;;;10.73;;
71655;SDS011;59497;48.798;8.816;2023-03-01T06:05:05;23.65;;;9.82;;
71655;SDS011;59497;48.798;8.816;2023-03-01T06:07:31;20.50;;;9.53;;
71655;SDS011;59497;48.798;8.816;2023-03-01T06:09:56;21.13;;;10.48;;
71655;SDS011;59497;48.798;8.816;2023-03-01T06:12:21;24.73;;;9.45;;
71655;SDS011;59497;48.798;8.816;2023-03-01T06:14:46;22.07;;;9.93;;
71655;SDS011;59497;48.798;8.816;2023-03-01T06:17:12;25.50;;;9.98;;
71655;SDS011;59497;48.798;8.816;2023-03-01T06:19:37;21.80;;;10.37;;
71655;SDS011;59497;48.798;8.816;2023-03-01T06:22:02;19.38;;;10.13;;
71655;SDS011;59497;48.798;8.816;2023-03-01T06:24:28;21.63;;;10.40;;
71655;SDS011;59497;48.798;8.816;2023-03-01T06:26:53;23.00;;;10.27;;
71655;SDS011;59497;48.798;8.816;2023-03-01T06:29:19;21.87;;;9.80;;
71655;SDS011;59497;48.798;8.816;2023-03-01T06:31:44;23.13;;;10.13;;
71655;SDS011;59497;48.798;8.816;2023-03-01T06:34:10;23.52;;;10.05;;
71655;SDS011;59497;48.798;8.816;2023-03-01T06:36:38;22.10;;;9.97;;
71655;SDS011;59497;48.798;8.816;2023-03-01T06:39:03;21.27;;;10.20;;
71655;SDS011;59497;48.798;8.816;2023-03-01T06:41:30;24.70;;;8.88;;
71655;SDS011;59497;48.798;8.816;2023-03-01T06:43:55;25.27;;;11.57;;
71655;SDS011;59497;48.798;8.816;2023-03-01T06:46:20;26.83;;;9.87;;
71655;SDS011;59497;48.798;8.816;2023-03-01T06:48:46;23.75;;;10.38;;
71655;SDS011;59497;48.798;8.816;2023-03-01T06:51:11;26.15;;;10.63;;
71655;SDS011;59497;48.798;8.816;2023-03-01T06:53:36;24.38;;;10.63;;
71655;SDS011;59497;48.798;8.816;2023-03-01T06:56:01;22.27;;;9.90;;
71655;SDS011;59497;48.798;8.816;2023-03-01T06:58:27;23.60;;;10.00;;
71655;SDS011;59497;48.798;8.816;2023-03-01T07:00:52;22.80;;;10.80;;
71655;SDS011;59497;48.798;8.816;2023-03-01T07:03:17;24.57;;;10.27;;
71655;SDS011;59497;48.798;8.816;2023-03-01T07:05:42;19.93;;;10.83;;
71655;SDS011;59497;48.798;8.816;2023-03-01T07:08:07;23.30;;;9.70;;
71655;SDS011;59497;48.798;8.816;2023-03-01T07:10:33;22.17;;;9.63;;
71655;SDS011;59497;48.798;8.816;2023-03-01T07:12:58;23.80;;;9.83;;
71655;SDS011;59497;48.798;8.816;2023-03-01T07:15:23;23.20;;;9.90;;
71655;SDS011;59497;48.798;8.816;2023-03-01T07:17:49;23.07;;;10.67;;
71655;SDS011;59497;48.798;8.816;2023-03-01T07:20:15;23.58;;;10.50;;
71655;SDS011;59497;48.798;8.816;2023-03-01T07:22:41;24.13;;;10.27;;
71655;SDS011;59497;48.798;8.816;2023-03-01T07:25:07;23.98;;;9.27;;
71655;SDS011;59497;48.798;8.816;2023-03-01T07:27:32;25.83;;;10.07;;
71655;SDS011;59497;48.798;8.816;2023-03-01T07:29:57;22.02;;;9.77;;
71655;SDS011;59497;48.798;8.816;2023-03-01T07:32:22;23.23;;;10.07;;
71655;SDS011;59497;48.798;8.816;2023-03-01T07:34:48;29.42;;;12.25;;
71655;SDS011;59497;48.798;8.816;2023-03-01T07:37:13;29.47;;;12.23;;
71655;SDS011;59497;48.798;8.816;2023-03-01T07:39:38;27.20;;;11.57;;
71655;SDS011;59497;48.798;8.816;2023-03-01T07:42:04;22.83;;;10.17;;
71655;SDS011;59497;48.798;8.816;2023-03-01T07:44:29;22.37;;;8.73;;
71655;SDS011;59497;48.798;8.816;2023-03-01T07:46:54;23.93;;;10.70;;
71655;SDS011;59497;48.798;8.816;2023-03-01T07:49:21;23.23;;;9.63;;
71655;SDS011;59497;48.798;8.816;2023-03-01T07:51:46;25.53;;;10.50;;
71655;SDS011;59497;48.798;8.816;2023-03-01T07:54:11;24.33;;;10.70;;
71655;SDS011;59497;48.798;8.816;2023-03-01T07:56:36;22.13;;;9.93;;
71655;SDS011;59497;48.798;8.816;2023-03-01T07:59:02;28.10;;;11.03;;
71655;SDS011;59497;48.798;8.816;2023-03-01T08:01:27;27.20;;;11.13;;
71655;SDS011;59497;48.798;8.816;2023-03-01T08:03:52;23.97;;;10.70;;
71655;SDS011;59497;48.798;8.816;2023-03-01T08:06:18;21.87;;;9.83;;
71655;SDS011;59497;48.798;8.816;2023-03-01T08:08:43;21.90;;;9.82;;
71655;SDS011;59497;48.798;8.816;2023-03-01T08:11:10;28.83;;;10.63;;
71655;SDS011;59497;48.798;8.816;2023-03-01T08:13:35;23.85;;;11.10;;
71655;SDS011;59497;48.798;8.816;2023-03-01T08:16:04;25.57;;;10.07;;
71655;SDS011;59497;48.798;8.816;2023-03-01T08:18:29;26.07;;;10.63;;
71655;SDS011;59497;48.798;8.816;2023-03-01T08:20:54;25.27;;;10.43;;
71655;SDS011;59497;48.798;8.816;2023-03-01T08:23:19;21.47;;;10.07;;
71655;SDS011;59497;48.798;8.816;2023-03-01T08:25:45;28.50;;;12.53;;
71655;SDS011;59497;48.798;8.816;2023-03-01T08:28:10;24.50;;;11.05;;
71655;SDS011;59497;48.798;8.816;2023-03-01T08:30:35;26.00;;;11.20;;
71655;SDS011;59497;48.798;8.816;2023-03-01T08:33:00;21.10;;;9.70;;
71655;SDS011;59497;48.798;8.816;2023-03-01T08:35:25;24.13;;;10.33;;
71655;SDS011;59497;48.798;8.816;2023-03-01T08:37:50;24.35;;;10.35;;
71655;SDS011;59497;48.798;8.816;2023-03-01T08:40:16;24.73;;;10.77;;
71655;SDS011;59497;48.798;8.816;2023-03-01T08:42:41;26.17;;;12.10;;
71655;SDS011;59497;48.798;8.816;2023-03-01T08:45:08;27.00;;;12.30;;
71655;SDS011;59497;48.798;8.816;2023-03-01T08:47:33;23.70;;;11.57;;
71655;SDS011;59497;48.798;8.816;2023-03-01T08:49:59;24.42;;;10.85;;
71655;SDS011;59497;48.798;8.816;2023-03-01T08:52:24;25.57;;;11.90;;
71655;SDS011;59497;48.798;8.816;2023-03-01T08:54:49;21.03;;;10.80;;
71655;SDS011;59497;48.798;8.816;2023-03-01T08:57:14;23.17;;;10.75;;
71655;SDS011;59497;48.798;8.816;2023-03-01T08:59:39;22.02;;;10.02;;
71655;SDS011;59497;48.798;8.816;2023-03-01T09:02:06;25.73;;;10.75;;
71655;SDS011;59497;48.798;8.816;2023-03-01T09:04:35;24.73;;;10.60;;
71655;SDS011;59497;48.798;8.816;2023-03-01T09:07:00;21.70;;;9.60;;
71655;SDS011;59497;48.798;8.816;2023-03-01T09:09:25;27.23;;;11.60;;
71655;SDS011;59497;48.798;8.816;2023-03-01T09:11:50;25.85;;;10.73;;
71655;SDS011;59497;48.798;8.816;2023-03-01T09:14:15;23.93;;;10.97;;
71655;SDS011;59497;48.798;8.816;2023-03-01T09:16:41;26.07;;;11.87;;
71655;SDS011;59497;48.798;8.816;2023-03-01T09:19:06;24.60;;;11.10;;
71655;SDS011;59497;48.798;8.816;2023-03-01T09:21:31;27.23;;;11.67;;
71655;SDS011;59497;48.798;8.816;2023-03-01T09:23:57;26.63;;;11.93;;
71655;SDS011;59497;48.798;8.816;2023-03-01T09:26:23;24.75;;;11.50;;
71655;SDS011;59497;48.798;8.816;2023-03-01T09:28:49;29.23;;;12.32;;
71655;SDS011;59497;48.798;8.816;2023-03-01T09:31:14;25.47;;;10.87;;
71655;SDS011;59497;48.798;8.816;2023-03-01T09:33:40;29.05;;;11.98;;
71655;SDS011;59497;48.798;8.816;2023-03-01T09:36:07;26.83;;;11.60;;
71655;SDS011;59497;48.798;8.816;2023-03-01T09:38:33;27.70;;;11.97;;
71655;SDS011;59497;48.798;8.816;2023-03-01T09:40:59;23.83;;;11.73;;
71655;SDS011;59497;48.798;8.816;2023-03-01T09:45:53;22.95;;;10.77;;
71655;SDS011;59497;48.798;8.816;2023-03-01T09:48:20;26.92;;;11.27;;
71655;SDS011;59497;48.798;8.816;2023-03-01T09:50:48;27.38;;;10.93;;
71655;SDS011;59497;48.798;8.816;2023-03-01T09:53:15;26.30;;;11.27;;
71655;SDS011;59497;48.798;8.816;2023-03-01T10:06:19;24.95;;;11.02;;
71655;SDS011;59497;48.798;8.816;2023-03-01T10:09:02;23.55;;;10.55;;
71655;SDS011;59497;48.798;8.816;2023-03-01T10:12:12;26.35;;;11.10;;
71655;SDS011;59497;48.798;8.816;2023-03-01T10:16:55;24.73;;;11.55;;
71655;SDS011;59497;48.798;8.816;2023-03-01T10:19:24;23.43;;;10.90;;
71655;SDS011;59497;48.798;8.816;2023-03-01T10:21:51;26.77;;;11.75;;
71655;SDS011;59497;48.798;8.816;2023-03-01T10:24:18;25.40;;;11.70;;
71655;SDS011;59497;48.798;8.816;2023-03-01T10:26:58;23.30;;;11.15;;
71655;SDS011;59497;48.798;8.816;2023-03-01T10:29:31;25.65;;;11.73;;
71655;SDS011;59497;48.798;8.816;2023-03-01T10:31:59;23.97;;;11.57;;
71655;SDS011;59497;48.798;8.816;2023-03-01T10:34:29;27.13;;;11.90;;
71655;SDS011;59497;48.798;8.816;2023-03-01T10:36:59;23.95;;;11.15;;
71655;SDS011;59497;48.798;8.816;2023-03-01T10:39:26;27.03;;;11.10;;
71655;SDS011;59497;48.798;8.816;2023-03-01T10:41:52;27.05;;;11.05;;
71655;SDS011;59497;48.798;8.816;2023-03-01T10:47:02;21.10;;;10.23;;
71655;SDS011;59497;48.798;8.816;2023-03-01T10:49:27;25.47;;;11.53;;
71655;SDS011;59497;48.798;8.816;2023-03-01T10:51:53;26.87;;;11.87;;
71655;SDS011;59497;48.798;8.816;2023-03-01T10:54:27;24.37;;;11.47;;
71655;SDS011;59497;48.798;8.816;2023-03-01T10:56:54;31.50;;;11.57;;
71655;SDS011;59497;48.798;8.816;2023-03-01T10:59:27;25.15;;;11.65;;
71655;SDS011;59497;48.798;8.816;2023-03-01T11:04:27;23.15;;;10.48;;
71655;SDS011;59497;48.798;8.816;2023-03-01T11:06:57;21.57;;;9.70;;
71655;SDS011;59497;48.798;8.816;2023-03-01T11:09:23;21.60;;;10.67;;
71655;SDS011;59497;48.798;8.816;2023-03-01T11:11:52;23.38;;;10.38;;
71655;SDS011;59497;48.798;8.816;2023-03-01T11:14:22;25.42;;;11.27;;
71655;SDS011;59497;48.798;8.816;2023-03-01T11:16:48;22.10;;;10.00;;
71655;SDS011;59497;48.798;8.816;2023-03-01T11:19:15;25.38;;;12.32;;
71655;SDS011;59497;48.798;8.816;2023-03-01T11:21:52;21.97;;;11.07;;
71655;SDS011;59497;48.798;8.816;2023-03-01T11:24:19;27.25;;;12.32;;
71655;SDS011;59497;48.798;8.816;2023-03-01T11:26:47;28.50;;;12.38;;
71655;SDS011;59497;48.798;8.816;2023-03-01T11:29:26;23.75;;;11.93;;
71655;SDS011;59497;48.798;8.816;2023-03-01T11:31:52;26.17;;;11.20;;
71655;SDS011;59497;48.798;8.816;2023-03-01T11:34:22;24.17;;;11.00;;
71655;SDS011;59497;48.798;8.816;2023-03-01T11:36:52;24.70;;;11.85;;
71655;SDS011;59497;48.798;8.816;2023-03-01T11:42:02;25.25;;;11.35;;
71655;SDS011;59497;48.798;8.816;2023-03-01T11:44:30;23.75;;;11.35;;
71655;SDS011;59497;48.798;8.816;2023-03-01T11:47:05;24.37;;;10.97;;
71655;SDS011;59497;48.798;8.816;2023-03-01T11:54:45;21.35;;;10.63;;
71655;SDS011;59497;48.798;8.816;2023-03-01T12:02:47;24.25;;;10.93;;
71655;SDS011;59497;48.798;8.816;2023-03-01T12:08:04;25.35;;;11.30;;
71655;SDS011;59497;48.798;8.816;2023-03-01T12:10:35;22.17;;;10.98;;
71655;SDS011;59497;48.798;8.816;2023-03-01T12:13:13;27.23;;;11.47;;
71655;SDS011;59497;48.798;8.816;2023-03-01T12:23:44;27.37;;;11.40;;
71655;SDS011;59497;48.798;8.816;2023-03-01T12:26:26;23.92;;;11.73;;
71655;SDS011;59497;48.798;8.816;2023-03-01T12:29:07;21.90;;;10.40;;
71655;SDS011;59497;48.798;8.816;2023-03-01T12:34:23;25.35;;;11.50;;
71655;SDS011;59497;48.798;8.816;2023-03-01T12:37:09;26.67;;;10.48;;
71655;SDS011;59497;48.798;8.816;2023-03-01T12:39:45;24.63;;;11.88;;
71655;SDS011;59497;48.798;8.816;2023-03-01T12:45:20;22.58;;;10.90;;
71655;SDS011;59497;48.798;8.816;2023-03-01T12:50:39;20.25;;;9.60;;
71655;SDS011;59497;48.798;8.816;2023-03-01T12:53:05;21.08;;;10.10;;
71655;SDS011;59497;48.798;8.816;2023-03-01T12:55:34;22.20;;;10.00;;
71655;SDS011;59497;48.798;8.816;2023-03-01T13:00:45;20.42;;;9.88;;
71655;SDS011;59497;48.798;8.816;2023-03-01T13:03:29;21.10;;;9.55;;
71655;SDS011;59497;48.798;8.816;2023-03-01T13:10:58;19.90;;;9.60;;
71655;SDS011;59497;48.798;8.816;2023-03-01T13:13:26;21.65;;;10.00;;
71655;SDS011;59497;48.798;8.816;2023-03-01T13:15:51;22.05;;;10.60;;
71655;SDS011;59497;48.798;8.816;2023-03-01T13:23:13;20.80;;;9.70;;
71655;SDS011;59497;48.798;8.816;2023-03-01T13:28:40;21.40;;;11.38;;
71655;SDS011;59497;48.798;8.816;2023-03-01T13:31:07;22.27;;;11.10;;
71655;SDS011;59497;48.798;8.816;2023-03-01T13:33:40;21.48;;;11.52;;
71655;SDS011;59497;48.798;8.816;2023-03-01T13:36:05;21.60;;;9.25;;
71655;SDS011;59497;48.798;8.816;2023-03-01T13:41:02;20.38;;;10.45;;
71655;SDS011;59497;48.798;8.816;2023-03-01T13:43:28;24.53;;;11.60;;
71655;SDS011;59497;48.798;8.816;2023-03-01T13:45:54;24.10;;;11.65;;
71655;SDS011;59497;48.798;8.816;2023-03-01T13:48:23;21.63;;;10.27;;
71655;SDS011;59497;48.798;8.816;2023-03-01T13:50:54;23.70;;;11.15;;
71655;SDS011;59497;48.798;8.816;2023-03-01T13:53:24;21.93;;;10.13;;
71655;SDS011;59497;48.798;8.816;2023-03-01T13:58:44;20.15;;;11.02;;
71655;SDS011;59497;48.798;8.816;2023-03-01T14:01:29;21.33;;;10.50;;
71655;SDS011;59497;48.798;8.816;2023-03-01T14:03:55;25.67;;;11.63;;
71655;SDS011;59497;48.798;8.816;2023-03-01T14:06:21;20.37;;;10.50;;
71655;SDS011;59497;48.798;8.816;2023-03-01T14:08:49;28.83;;;13.10;;
71655;SDS011;59497;48.798;8.816;2023-03-01T14:11:21;27.15;;;12.65;;
71655;SDS011;59497;48.798;8.816;2023-03-01T14:14:10;30.55;;;13.35;;
71655;SDS011;59497;48.798;8.816;2023-03-01T14:16:45;25.03;;;11.23;;
71655;SDS011;59497;48.798;8.816;2023-03-01T14:19:18;25.20;;;12.20;;
71655;SDS011;59497;48.798;8.816;2023-03-01T14:21:45;24.42;;;11.30;;
71655;SDS011;59497;48.798;8.816;2023-03-01T14:24:17;23.90;;;11.10;;
71655;SDS011;59497;48.798;8.816;2023-03-01T14:26:42;20.70;;;10.52;;
71655;SDS011;59497;48.798;8.816;2023-03-01T14:29:22;20.70;;;11.10;;
71655;SDS011;59497;48.798;8.816;2023-03-01T14:31:47;28.98;;;11.60;;
71655;SDS011;59497;48.798;8.816;2023-03-01T14:34:23;22.30;;;10.80;;
71655;SDS011;59497;48.798;8.816;2023-03-01T14:36:48;21.73;;;11.15;;
71655;SDS011;59497;48.798;8.816;2023-03-01T14:39:18;25.50;;;11.60;;
71655;SDS011;59497;48.798;8.816;2023-03-01T14:41:43;22.17;;;11.85;;
71655;SDS011;59497;48.798;8.816;2023-03-01T14:44:12;22.53;;;10.90;;
71655;SDS011;59497;48.798;8.816;2023-03-01T14:46:40;21.02;;;11.77;;
71655;SDS011;59497;48.798;8.816;2023-03-01T14:51:37;23.60;;;11.23;;
71655;SDS011;59497;48.798;8.816;2023-03-01T14:54:02;25.08;;;11.20;;
71655;SDS011;59497;48.798;8.816;2023-03-01T14:56:28;22.97;;;11.47;;
71655;SDS011;59497;48.798;8.816;2023-03-01T14:59:07;24.02;;;11.30;;
71655;SDS011;59497;48.798;8.816;2023-03-01T15:01:33;24.30;;;10.80;;
71655;SDS011;59497;48.798;8.816;2023-03-01T15:03:59;23.63;;;10.70;;
71655;SDS011;59497;48.798;8.816;2023-03-01T15:06:26;27.70;;;11.52;;
71655;SDS011;59497;48.798;8.816;2023-03-01T15:08:52;22.90;;;11.17;;
71655;SDS011;59497;48.798;8.816;2023-03-01T15:11:22;23.23;;;10.73;;
71655;SDS011;59497;48.798;8.816;2023-03-01T15:13:51;24.10;;;11.27;;
71655;SDS011;59497;48.798;8.816;2023-03-01T15:16:27;21.43;;;11.13;;
71655;SDS011;59497;48.798;8.816;2023-03-01T15:18:54;22.20;;;11.02;;
71655;SDS011;59497;48.798;8.816;2023-03-01T15:21:21;20.23;;;11.50;;
71655;SDS011;59497;48.798;8.816;2023-03-01T15:23:48;20.75;;;10.68;;
71655;SDS011;59497;48.798;8.816;2023-03-01T15:28:58;21.97;;;10.97;;
71655;SDS011;59497;48.798;8.816;2023-03-01T15:31:25;21.15;;;10.52;;
71655;SDS011;59497;48.798;8.816;2023-03-01T15:33:51;23.27;;;11.05;;
71655;SDS011;59497;48.798;8.816;2023-03-01T15:36:30;24.83;;;11.27;;
71655;SDS011;59497;48.798;8.816;2023-03-01T15:38:56;21.13;;;11.23;;
71655;SDS011;59497;48.798;8.816;2023-03-01T15:43:53;22.38;;;11.15;;
71655;SDS011;59497;48.798;8.816;2023-03-01T15:46:27;20.90;;;10.50;;
71655;SDS011;59497;48.798;8.816;2023-03-01T15:48:54;22.17;;;10.73;;
71655;SDS011;59497;48.798;8.816;2023-03-01T15:51:28;21.60;;;11.35;;